Time;durP1;ratioP1;P1;durP2;ratioP2;P2;SDS_P1;SDS_P2;PMS_P1;PMS_P2;Temp;Humidity;BMP_temperature;BMP_pressure;BME280_temperature;BME280_humidity;BME280_pressure;Samples;Min_cycle;Max_cycle;Signal;HPM_P1;HPM_P2
2022/04/13 00:00:25;;;;;;;7.43;4.13;;;;;;;;;;5013917;28;20180;-62
2022/04/13 00:02:51;;;;;;;10.00;4.20;;;;;;;;;;5032648;22;20195;-67
2022/04/13 00:05:17;;;;;;;8.53;4.03;;;;;;;;;;5033882;28;20167;-64
2022/04/13 00:07:43;;;;;;;10.40;4.37;;;;;;;;;;5034363;28;20191;-66
2022/04/13 00:10:09;;;;;;;9.20;4.20;;;;;;;;;;5016061;28;20186;-66
2022/04/13 00:12:35;;;;;;;7.87;3.90;;;;;;;;;;5015976;28;20183;-64
2022/04/13 00:15:02;;;;;;;8.47;4.17;;;;;;;;;;5033879;28;20203;-64
2022/04/13 00:17:28;;;;;;;9.00;3.60;;;;;;;;;;5015940;28;20175;-64
2022/04/13 00:19:54;;;;;;;9.53;4.23;;;;;;;;;;5033607;28;20187;-65
2022/04/13 00:22:20;;;;;;;7.27;3.97;;;;;;;;;;5033726;28;20179;-65
2022/04/13 00:24:46;;;;;;;7.13;3.80;;;;;;;;;;5033935;28;20199;-66
2022/04/13 00:27:12;;;;;;;10.37;4.67;;;;;;;;;;5033800;28;20179;-65
2022/04/13 00:29:38;;;;;;;9.23;4.13;;;;;;;;;;5033563;28;20171;-65
2022/04/13 00:32:04;;;;;;;6.73;3.83;;;;;;;;;;5033544;28;20240;-65
2022/04/13 00:34:30;;;;;;;8.63;3.87;;;;;;;;;;5033443;28;20206;-66
2022/04/13 00:36:57;;;;;;;7.07;4.27;;;;;;;;;;5033603;28;20206;-66
2022/04/13 00:39:23;;;;;;;12.07;4.27;;;;;;;;;;5033681;28;20175;-66
2022/04/13 00:41:55;;;;;;;7.93;4.20;;;;;;;;;;5015741;28;20186;-67
2022/04/13 00:44:21;;;;;;;9.87;4.07;;;;;;;;;;5033317;28;20194;-67
2022/04/13 00:46:47;;;;;;;6.57;4.10;;;;;;;;;;5015692;28;20256;-66
2022/04/13 00:49:14;;;;;;;9.50;4.20;;;;;;;;;;5033215;28;20185;-66
2022/04/13 00:51:40;;;;;;;7.60;4.70;;;;;;;;;;5015696;28;20643;-66
2022/04/13 00:54:07;;;;;;;6.27;4.30;;;;;;;;;;5015475;28;20257;-66
2022/04/13 00:56:33;;;;;;;10.60;4.10;;;;;;;;;;5033393;28;20583;-66
2022/04/13 00:59:03;;;;;;;8.37;4.20;;;;;;;;;;5033581;28;20175;-67
2022/04/13 01:01:29;;;;;;;10.90;4.30;;;;;;;;;;5015908;28;20635;-66
2022/04/13 01:03:56;;;;;;;8.80;3.73;;;;;;;;;;5033183;28;20260;-66
2022/04/13 01:06:22;;;;;;;7.87;4.27;;;;;;;;;;5015296;28;20201;-67
2022/04/13 01:08:51;;;;;;;8.90;4.63;;;;;;;;;;5015565;28;20179;-67
2022/04/13 01:11:17;;;;;;;9.10;3.90;;;;;;;;;;5015433;28;20187;-66
2022/04/13 01:13:44;;;;;;;8.87;4.00;;;;;;;;;;5017464;28;20207;-66
2022/04/13 01:16:10;;;;;;;6.80;4.00;;;;;;;;;;5036883;28;20261;-66
2022/04/13 01:18:36;;;;;;;14.17;4.00;;;;;;;;;;5037319;28;20186;-66
2022/04/13 01:21:02;;;;;;;8.77;3.90;;;;;;;;;;5037425;28;20179;-68
2022/04/13 01:23:28;;;;;;;12.93;4.40;;;;;;;;;;5036956;28;20246;-67
2022/04/13 01:25:55;;;;;;;9.10;4.07;;;;;;;;;;5036746;28;20187;-66
2022/04/13 01:28:22;;;;;;;12.53;4.50;;;;;;;;;;5019061;28;20187;-67
2022/04/13 01:30:48;;;;;;;9.03;4.30;;;;;;;;;;5036920;28;20207;-66
2022/04/13 01:33:14;;;;;;;6.67;3.97;;;;;;;;;;5037029;28;20218;-67
2022/04/13 01:35:40;;;;;;;8.37;4.20;;;;;;;;;;5019023;28;20253;-66
2022/04/13 01:38:06;;;;;;;6.87;4.23;;;;;;;;;;5036877;28;20545;-68
2022/04/13 01:40:31;;;;;;;7.03;3.93;;;;;;;;;;5018791;28;20187;-67
2022/04/13 01:42:57;;;;;;;8.73;4.03;;;;;;;;;;5036543;28;20551;-67
2022/04/13 01:45:23;;;;;;;7.50;4.07;;;;;;;;;;5036827;28;20178;-66
2022/04/13 01:47:50;;;;;;;9.20;3.90;;;;;;;;;;5037188;28;20179;-66
2022/04/13 01:50:16;;;;;;;9.07;4.43;;;;;;;;;;5018960;28;20186;-67
2022/04/13 01:52:43;;;;;;;8.57;4.33;;;;;;;;;;5036515;28;20186;-66
2022/04/13 01:55:09;;;;;;;5.37;3.87;;;;;;;;;;5018705;28;20207;-66
2022/04/13 01:57:36;;;;;;;7.30;4.77;;;;;;;;;;5018654;28;20270;-66
2022/04/13 02:00:02;;;;;;;9.47;4.63;;;;;;;;;;5018649;28;20554;-66
2022/04/13 02:02:28;;;;;;;9.57;4.87;;;;;;;;;;5036861;28;20582;-67
2022/04/13 02:04:54;;;;;;;9.30;4.10;;;;;;;;;;5036411;28;20285;-67
2022/04/13 02:07:20;;;;;;;12.53;4.53;;;;;;;;;;5036582;28;20180;-66
2022/04/13 02:09:46;;;;;;;6.80;4.17;;;;;;;;;;5036682;28;20186;-66
2022/04/13 02:12:12;;;;;;;6.43;4.67;;;;;;;;;;5018224;28;20183;-66
2022/04/13 02:14:38;;;;;;;6.93;4.30;;;;;;;;;;5036048;28;20195;-66
2022/04/13 02:17:04;;;;;;;8.33;4.27;;;;;;;;;;5036458;28;20570;-67
2022/04/13 02:19:30;;;;;;;12.83;5.30;;;;;;;;;;5036177;28;20175;-66
2022/04/13 02:21:56;;;;;;;10.63;4.63;;;;;;;;;;5018281;28;20226;-66
2022/04/13 02:24:22;;;;;;;9.30;4.50;;;;;;;;;;5017793;28;20205;-66
2022/04/13 02:26:48;;;;;;;8.13;4.60;;;;;;;;;;5018316;28;20622;-67
2022/04/13 02:29:14;;;;;;;7.57;4.40;;;;;;;;;;5036269;28;20618;-67
2022/04/13 02:31:40;;;;;;;7.87;4.50;;;;;;;;;;5035813;28;20575;-66
2022/04/13 02:34:07;;;;;;;8.57;4.70;;;;;;;;;;5035803;28;20667;-67
2022/04/13 02:36:33;;;;;;;9.53;4.17;;;;;;;;;;5036170;28;20195;-66
2022/04/13 02:38:59;;;;;;;7.03;4.57;;;;;;;;;;5035887;28;20175;-66
2022/04/13 02:41:25;;;;;;;9.77;4.83;;;;;;;;;;5035758;28;20171;-66
2022/04/13 02:43:51;;;;;;;6.73;3.90;;;;;;;;;;5035574;28;20195;-66
2022/04/13 02:46:17;;;;;;;10.03;4.60;;;;;;;;;;5035813;28;20550;-66
2022/04/13 02:48:43;;;;;;;8.77;4.57;;;;;;;;;;5036081;28;20547;-66
2022/04/13 02:51:09;;;;;;;7.60;4.50;;;;;;;;;;5035518;28;20175;-66
2022/04/13 02:53:35;;;;;;;8.30;4.23;;;;;;;;;;5035425;28;20195;-67
2022/04/13 02:56:01;;;;;;;12.87;4.70;;;;;;;;;;5035399;28;20203;-66
2022/04/13 02:58:27;;;;;;;12.57;4.60;;;;;;;;;;5035300;28;20179;-66
2022/04/13 03:00:54;;;;;;;9.13;4.63;;;;;;;;;;5035168;28;20179;-66
2022/04/13 03:03:21;;;;;;;9.77;4.50;;;;;;;;;;5035041;28;20288;-66
2022/04/13 03:05:47;;;;;;;8.10;4.20;;;;;;;;;;5035285;28;20183;-66
2022/04/13 03:08:13;;;;;;;9.13;4.77;;;;;;;;;;5017444;28;20603;-67
2022/04/13 03:10:39;;;;;;;9.17;4.63;;;;;;;;;;5034941;28;20175;-67
2022/04/13 03:13:05;;;;;;;7.13;4.47;;;;;;;;;;5035184;28;20298;-66
2022/04/13 03:15:31;;;;;;;8.83;4.33;;;;;;;;;;5017262;28;20203;-66
2022/04/13 03:17:57;;;;;;;11.23;4.80;;;;;;;;;;5035678;28;20187;-67
2022/04/13 03:20:23;;;;;;;14.07;4.43;;;;;;;;;;5017278;28;20205;-66
2022/04/13 03:22:50;;;;;;;9.03;4.30;;;;;;;;;;5035093;28;20245;-66
2022/04/13 03:25:16;;;;;;;9.80;4.30;;;;;;;;;;5017143;28;20187;-67
2022/04/13 03:27:42;;;;;;;9.10;4.23;;;;;;;;;;5034797;28;20175;-66
2022/04/13 03:30:08;;;;;;;13.80;4.20;;;;;;;;;;5016911;28;20186;-66
2022/04/13 03:32:38;;;;;;;11.17;4.67;;;;;;;;;;5035124;28;20233;-66
2022/04/13 03:35:08;;;;;;;11.17;4.83;;;;;;;;;;5016440;28;20559;-66
2022/04/13 03:37:34;;;;;;;6.07;4.10;;;;;;;;;;5034413;28;20266;-66
2022/04/13 03:40:00;;;;;;;10.17;4.60;;;;;;;;;;5034609;28;20179;-66
2022/04/13 03:42:26;;;;;;;11.43;4.67;;;;;;;;;;5034387;28;20183;-66
2022/04/13 03:44:51;;;;;;;7.87;4.63;;;;;;;;;;5034537;28;20178;-66
2022/04/13 03:47:18;;;;;;;7.40;4.30;;;;;;;;;;5036638;28;20266;-66
2022/04/13 03:49:44;;;;;;;7.33;4.10;;;;;;;;;;5037086;28;20239;-66
2022/04/13 03:52:10;;;;;;;7.63;4.33;;;;;;;;;;5036782;28;20210;-66
2022/04/13 03:54:36;;;;;;;11.30;4.90;;;;;;;;;;5018338;28;20202;-67
2022/04/13 03:57:02;;;;;;;8.87;5.20;;;;;;;;;;5034171;28;20214;-66
2022/04/13 03:59:28;;;;;;;13.10;4.77;;;;;;;;;;5016444;28;20235;-66
2022/04/13 04:01:54;;;;;;;11.87;4.33;;;;;;;;;;5034382;28;20655;-67
2022/04/13 04:04:20;;;;;;;7.87;4.93;;;;;;;;;;5016091;28;20249;-66
2022/04/13 04:06:46;;;;;;;7.90;4.43;;;;;;;;;;5034211;28;20203;-66
2022/04/13 04:09:12;;;;;;;8.90;4.80;;;;;;;;;;5034189;28;20301;-67
2022/04/13 04:11:38;;;;;;;12.07;4.60;;;;;;;;;;5034073;28;20186;-66
2022/04/13 04:14:04;;;;;;;8.20;4.50;;;;;;;;;;5033845;28;20205;-67
2022/04/13 04:16:30;;;;;;;11.20;4.63;;;;;;;;;;5016319;28;20217;-66
2022/04/13 04:18:56;;;;;;;11.87;4.30;;;;;;;;;;5034027;28;20175;-66
2022/04/13 04:21:22;;;;;;;6.43;4.67;;;;;;;;;;5033777;28;20221;-67
2022/04/13 04:23:48;;;;;;;12.17;4.63;;;;;;;;;;5016199;28;20209;-66
2022/04/13 04:26:14;;;;;;;8.90;4.37;;;;;;;;;;5033949;28;20356;-67
2022/04/13 04:28:41;;;;;;;10.37;4.07;;;;;;;;;;5033560;28;20214;-66
2022/04/13 04:31:07;;;;;;;16.20;4.67;;;;;;;;;;5033642;28;20202;-66
2022/04/13 04:33:33;;;;;;;10.93;4.33;;;;;;;;;;5033735;28;20205;-66
2022/04/13 04:35:59;;;;;;;7.07;4.07;;;;;;;;;;5033953;28;20234;-66
2022/04/13 04:38:27;;;;;;;9.00;4.67;;;;;;;;;;5015920;28;20175;-66
2022/04/13 04:40:54;;;;;;;8.60;4.57;;;;;;;;;;5033653;28;20520;-66
2022/04/13 04:43:20;;;;;;;8.70;4.40;;;;;;;;;;5033614;28;20194;-67
2022/04/13 04:45:46;;;;;;;7.50;4.00;;;;;;;;;;5033526;28;20552;-67
2022/04/13 04:48:12;;;;;;;10.27;4.30;;;;;;;;;;5033410;28;20258;-66
2022/04/13 04:50:38;;;;;;;8.77;4.70;;;;;;;;;;5015764;28;20183;-66
2022/04/13 04:53:04;;;;;;;7.33;4.50;;;;;;;;;;5015833;28;20251;-66
2022/04/13 04:55:31;;;;;;;12.10;5.10;;;;;;;;;;5033481;28;20238;-66
2022/04/13 04:57:57;;;;;;;7.67;4.80;;;;;;;;;;5034041;28;20263;-67
2022/04/13 05:00:23;;;;;;;13.77;6.57;;;;;;;;;;5033388;28;20724;-66
2022/04/13 05:02:50;;;;;;;10.87;6.80;;;;;;;;;;5015374;28;20697;-67
2022/04/13 05:05:16;;;;;;;12.27;5.73;;;;;;;;;;5033710;28;20195;-67
2022/04/13 05:07:42;;;;;;;11.90;6.03;;;;;;;;;;5033508;28;20179;-67
2022/04/13 05:10:09;;;;;;;11.57;6.87;;;;;;;;;;5033295;28;20265;-66
2022/04/13 05:12:42;;;;;;;16.93;7.73;;;;;;;;;;5015547;28;20238;-66
2022/04/13 05:15:09;;;;;;;10.93;6.13;;;;;;;;;;5033297;28;20233;-66
2022/04/13 05:17:35;;;;;;;10.67;5.80;;;;;;;;;;5033031;28;20180;-66
2022/04/13 05:20:01;;;;;;;11.77;5.17;;;;;;;;;;5033683;28;20179;-66
2022/04/13 05:22:27;;;;;;;8.97;5.37;;;;;;;;;;5033249;28;20182;-66
2022/04/13 05:24:53;;;;;;;12.93;6.03;;;;;;;;;;5015395;28;20230;-66
2022/04/13 05:27:19;;;;;;;8.40;5.30;;;;;;;;;;5033377;28;20178;-66
2022/04/13 05:29:45;;;;;;;9.63;5.23;;;;;;;;;;5015587;28;20176;-66
2022/04/13 05:32:13;;;;;;;16.20;5.03;;;;;;;;;;5033610;28;20203;-67
2022/04/13 05:34:39;;;;;;;11.50;5.20;;;;;;;;;;5033524;28;20191;-66
2022/04/13 05:37:05;;;;;;;11.17;5.07;;;;;;;;;;5033283;28;20214;-67
2022/04/13 05:39:31;;;;;;;11.37;5.30;;;;;;;;;;5033109;28;20175;-66
2022/04/13 05:41:57;;;;;;;13.37;5.10;;;;;;;;;;5033038;28;20210;-65
2022/04/13 05:44:23;;;;;;;13.10;5.33;;;;;;;;;;5032922;28;20229;-64
2022/04/13 05:46:49;;;;;;;8.07;4.77;;;;;;;;;;5033121;28;20179;-65
2022/04/13 05:49:15;;;;;;;15.53;6.00;;;;;;;;;;5033057;28;20191;-66
2022/04/13 05:51:41;;;;;;;13.87;5.30;;;;;;;;;;5032993;28;20615;-64
2022/04/13 05:54:07;;;;;;;10.70;4.73;;;;;;;;;;5015263;28;20207;-64
2022/04/13 05:56:33;;;;;;;10.80;5.87;;;;;;;;;;5033304;28;20289;-65
2022/04/13 05:58:59;;;;;;;12.07;6.17;;;;;;;;;;5016363;28;20179;-65
2022/04/13 06:01:25;;;;;;;17.73;5.43;;;;;;;;;;5020348;28;20176;-65
2022/04/13 06:03:51;;;;;;;9.93;5.70;;;;;;;;;;5021058;28;20272;-65
2022/04/13 06:06:17;;;;;;;10.57;5.10;;;;;;;;;;5038468;28;20554;-65
2022/04/13 06:08:43;;;;;;;13.57;5.47;;;;;;;;;;5037430;28;20175;-64
2022/04/13 06:11:09;;;;;;;10.17;5.90;;;;;;;;;;5036487;28;20190;-65
2022/04/13 06:13:36;;;;;;;11.53;5.43;;;;;;;;;;5019806;28;20207;-65
2022/04/13 06:16:02;;;;;;;14.67;5.50;;;;;;;;;;5041015;28;20203;-65
2022/04/13 06:18:27;;;;;;;14.43;5.87;;;;;;;;;;5041248;28;20664;-67
2022/04/13 06:20:53;;;;;;;15.27;5.50;;;;;;;;;;5040373;28;20259;-65
2022/04/13 06:23:19;;;;;;;14.33;5.60;;;;;;;;;;5040280;28;20205;-65
2022/04/13 06:25:45;;;;;;;12.10;5.30;;;;;;;;;;5040475;28;20600;-65
2022/04/13 06:28:11;;;;;;;8.83;5.10;;;;;;;;;;5037997;28;20210;-66
2022/04/13 06:30:37;;;;;;;12.77;5.63;;;;;;;;;;5036760;28;20183;-65
2022/04/13 06:33:03;;;;;;;13.00;6.40;;;;;;;;;;5036375;28;20248;-65
2022/04/13 06:35:29;;;;;;;8.50;5.13;;;;;;;;;;5036183;28;20207;-65
2022/04/13 06:37:55;;;;;;;15.03;5.50;;;;;;;;;;5036028;28;20183;-65
2022/04/13 06:40:21;;;;;;;10.83;5.70;;;;;;;;;;5036211;28;20182;-67
2022/04/13 06:42:48;;;;;;;9.73;5.30;;;;;;;;;;5035789;28;20179;-64
2022/04/13 06:45:14;;;;;;;12.10;6.40;;;;;;;;;;5018327;28;20251;-65
2022/04/13 06:47:41;;;;;;;13.47;6.60;;;;;;;;;;5018292;28;20187;-65
2022/04/13 06:50:08;;;;;;;11.57;6.30;;;;;;;;;;5018196;28;20171;-66
2022/04/13 06:52:34;;;;;;;13.63;6.33;;;;;;;;;;5017972;28;20547;-65
2022/04/13 06:55:00;;;;;;;12.50;6.07;;;;;;;;;;5036230;28;20585;-65
2022/04/13 06:57:26;;;;;;;12.67;6.80;;;;;;;;;;5035768;28;20210;-65
2022/04/13 06:59:52;;;;;;;17.10;9.20;;;;;;;;;;5035527;28;20210;-65
2022/04/13 07:02:19;;;;;;;12.70;8.03;;;;;;;;;;5035388;28;20181;-65
2022/04/13 07:04:45;;;;;;;12.73;6.67;;;;;;;;;;5017827;28;20214;-65
2022/04/13 07:07:10;;;;;;;12.00;6.80;;;;;;;;;;5035581;28;20248;-65
2022/04/13 07:09:36;;;;;;;10.17;6.70;;;;;;;;;;5035113;28;20175;-65
2022/04/13 07:12:03;;;;;;;11.73;6.10;;;;;;;;;;5034128;28;20183;-65
2022/04/13 07:14:29;;;;;;;14.20;7.50;;;;;;;;;;5035126;28;20191;-67
2022/04/13 07:16:55;;;;;;;13.83;7.63;;;;;;;;;;5017669;28;20275;-65
2022/04/13 07:19:20;;;;;;;14.23;7.50;;;;;;;;;;5035141;28;20647;-66
2022/04/13 07:21:46;;;;;;;11.37;7.60;;;;;;;;;;5017283;28;20187;-65
2022/04/13 07:24:12;;;;;;;13.90;7.33;;;;;;;;;;5034855;28;20206;-65
2022/04/13 07:26:39;;;;;;;11.47;7.33;;;;;;;;;;5017077;28;20186;-65
2022/04/13 07:29:05;;;;;;;13.97;7.13;;;;;;;;;;5035117;28;20235;-65
2022/04/13 07:31:32;;;;;;;13.70;7.70;;;;;;;;;;5034731;28;20179;-65
2022/04/13 07:33:58;;;;;;;14.10;8.10;;;;;;;;;;5017165;28;20229;-66
2022/04/13 07:36:24;;;;;;;12.83;8.43;;;;;;;;;;5017551;28;20207;-66
2022/04/13 07:38:50;;;;;;;13.97;8.30;;;;;;;;;;5034663;28;20589;-65
2022/04/13 07:41:16;;;;;;;13.40;7.97;;;;;;;;;;5034757;28;20179;-66
2022/04/13 07:43:43;;;;;;;11.77;7.40;;;;;;;;;;5034697;28;20199;-65
2022/04/13 07:46:09;;;;;;;12.97;8.13;;;;;;;;;;5034442;28;20190;-68
2022/04/13 07:48:35;;;;;;;16.57;8.77;;;;;;;;;;5016698;28;20179;-65
2022/04/13 07:51:01;;;;;;;15.20;8.20;;;;;;;;;;5016696;28;20190;-66
2022/04/13 07:53:27;;;;;;;14.87;8.23;;;;;;;;;;5034791;28;20336;-67
2022/04/13 07:55:53;;;;;;;16.80;8.70;;;;;;;;;;5034278;28;20203;-65
2022/04/13 07:58:19;;;;;;;12.37;8.23;;;;;;;;;;5016608;28;20171;-66
2022/04/13 08:00:45;;;;;;;17.50;8.53;;;;;;;;;;5034703;28;20183;-66
2022/04/13 08:03:11;;;;;;;12.43;7.27;;;;;;;;;;5034402;28;20289;-67
2022/04/13 08:05:38;;;;;;;;;;;;;;;;;;5017247;28;20554;-66
2022/04/13 08:08:04;;;;;;;13.37;8.37;;;;;;;;;;5016027;28;20408;-65
2022/04/13 08:10:30;;;;;;;12.50;7.30;;;;;;;;;;5034423;28;20413;-63
2022/04/13 08:12:56;;;;;;;11.90;7.30;;;;;;;;;;5018011;28;20203;-66
2022/04/13 08:15:23;;;;;;;15.87;8.90;;;;;;;;;;5034090;28;20261;-65
2022/04/13 08:17:49;;;;;;;10.93;7.47;;;;;;;;;;5016096;28;20183;-65
2022/04/13 08:20:15;;;;;;;15.60;8.27;;;;;;;;;;5016101;28;20236;-65
2022/04/13 08:22:42;;;;;;;11.77;7.03;;;;;;;;;;5016263;28;20202;-64
2022/04/13 08:25:09;;;;;;;11.20;7.00;;;;;;;;;;5016260;28;20602;-65
2022/04/13 08:27:35;;;;;;;15.30;6.63;;;;;;;;;;5033730;28;20257;-65
2022/04/13 08:30:01;;;;;;;12.60;7.03;;;;;;;;;;5033687;28;20258;-65
2022/04/13 08:32:27;;;;;;;9.07;6.20;;;;;;;;;;5015885;28;20661;-65
2022/04/13 08:34:53;;;;;;;10.87;6.47;;;;;;;;;;5016073;28;20294;-65
2022/04/13 08:37:23;;;;;;;10.03;5.87;;;;;;;;;;5033452;28;20234;-65
2022/04/13 08:39:49;;;;;;;8.20;5.43;;;;;;;;;;5017560;28;20179;-65
2022/04/13 08:42:31;;;;;;;10.70;5.80;;;;;;;;;;5033794;28;20186;-65
2022/04/13 08:45:01;;;;;;;15.57;5.37;;;;;;;;;;5033823;28;20638;-64
2022/04/13 08:47:28;;;;;;;9.60;5.50;;;;;;;;;;5015673;28;20178;-64
2022/04/13 08:49:55;;;;;;;13.30;5.47;;;;;;;;;;5015496;28;20179;-65
2022/04/13 08:52:24;;;;;;;10.87;5.17;;;;;;;;;;5033237;28;20203;-65
2022/04/13 08:54:50;;;;;;;12.00;5.90;;;;;;;;;;5015583;28;20214;-65
2022/04/13 08:57:20;;;;;;;8.97;5.50;;;;;;;;;;5033523;28;20207;-64
2022/04/13 08:59:49;;;;;;;7.53;4.37;;;;;;;;;;5033973;28;20187;-64
2022/04/13 09:02:18;;;;;;;9.77;4.87;;;;;;;;;;5033421;28;20183;-64
2022/04/13 09:04:45;;;;;;;9.23;4.87;;;;;;;;;;5033304;28;20683;-64
2022/04/13 09:07:13;;;;;;;12.67;5.20;;;;;;;;;;5015572;28;20193;-64
2022/04/13 09:09:45;;;;;;;7.00;5.23;;;;;;;;;;5033017;28;20256;-64
2022/04/13 09:12:11;;;;;;;11.50;5.13;;;;;;;;;;5015421;28;20203;-64
2022/04/13 09:14:37;;;;;;;8.97;5.73;;;;;;;;;;5033006;28;20203;-64
2022/04/13 09:17:05;;;;;;;11.97;5.10;;;;;;;;;;5033162;28;20218;-64
2022/04/13 09:19:31;;;;;;;19.43;5.20;;;;;;;;;;5015402;28;20233;-64
2022/04/13 09:21:58;;;;;;;9.73;5.33;;;;;;;;;;5033214;28;20179;-64
2022/04/13 09:24:25;;;;;;;10.20;5.90;;;;;;;;;;5032945;28;20225;-64
2022/04/13 09:26:51;;;;;;;10.13;5.10;;;;;;;;;;5015130;28;20730;-64
2022/04/13 09:29:17;;;;;;;13.17;5.90;;;;;;;;;;5032864;28;20179;-64
2022/04/13 09:31:44;;;;;;;14.27;5.40;;;;;;;;;;5033346;28;20251;-64
2022/04/13 09:34:10;;;;;;;8.80;4.87;;;;;;;;;;5033892;28;20205;-65
2022/04/13 09:36:36;;;;;;;11.87;5.37;;;;;;;;;;5036634;28;20203;-64
2022/04/13 09:39:02;;;;;;;12.03;5.60;;;;;;;;;;5018825;28;20554;-64
2022/04/13 09:41:35;;;;;;;9.93;5.60;;;;;;;;;;5036666;28;20167;-64
2022/04/13 09:44:02;;;;;;;10.67;5.37;;;;;;;;;;5018857;28;20683;-64
2022/04/13 09:46:30;;;;;;;12.43;5.20;;;;;;;;;;5036775;28;20230;-64
2022/04/13 09:49:10;;;;;;;6.87;4.47;;;;;;;;;;5036595;28;20175;-64
2022/04/13 09:51:37;;;;;;;11.37;5.13;;;;;;;;;;5036505;28;20676;-64
2022/04/13 09:54:11;;;;;;;16.40;5.43;;;;;;;;;;5018723;28;20199;-63
2022/04/13 09:56:40;;;;;;;8.30;5.30;;;;;;;;;;5039461;28;20289;-64
2022/04/13 09:59:06;;;;;;;8.33;5.00;;;;;;;;;;5039659;28;20186;-64
2022/04/13 10:01:34;;;;;;;10.17;5.50;;;;;;;;;;5039648;28;20261;-63
2022/04/13 10:04:00;;;;;;;9.37;4.67;;;;;;;;;;5038557;28;20682;-63
2022/04/13 10:06:28;;;;;;;8.90;4.83;;;;;;;;;;5036428;28;20179;-64
2022/04/13 10:09:06;;;;;;;12.87;5.53;;;;;;;;;;5018385;28;20178;-63
2022/04/13 10:11:32;;;;;;;11.07;5.47;;;;;;;;;;5036146;28;20643;-64
2022/04/13 10:14:02;;;;;;;9.63;5.33;;;;;;;;;;5035945;28;20214;-63
2022/04/13 10:16:32;;;;;;;9.47;5.20;;;;;;;;;;5018099;28;20214;-64
2022/04/13 10:18:59;;;;;;;11.17;4.73;;;;;;;;;;5036167;28;20634;-64
2022/04/13 10:21:43;;;;;;;7.10;4.70;;;;;;;;;;5018109;28;20254;-64
2022/04/13 10:24:24;;;;;;;12.87;5.67;;;;;;;;;;5035841;28;20191;-64
2022/04/13 10:27:05;;;;;;;7.57;5.17;;;;;;;;;;5035806;28;20168;-64
2022/04/13 10:29:31;;;;;;;7.57;4.67;;;;;;;;;;5035730;28;20174;-64
2022/04/13 10:32:10;;;;;;;9.33;4.77;;;;;;;;;;5017824;28;20619;-65
2022/04/13 10:34:37;;;;;;;9.93;5.20;;;;;;;;;;5035491;28;20199;-64
2022/04/13 10:37:03;;;;;;;9.13;5.20;;;;;;;;;;5035586;28;20573;-64
2022/04/13 10:39:30;;;;;;;11.10;5.47;;;;;;;;;;5035479;28;20175;-64
2022/04/13 10:41:56;;;;;;;8.00;6.00;;;;;;;;;;5035462;28;20233;-64
2022/04/13 10:44:30;;;;;;;8.47;5.40;;;;;;;;;;5035078;28;20225;-64
2022/04/13 10:46:59;;;;;;;10.17;5.97;;;;;;;;;;5017694;28;20209;-64
2022/04/13 10:49:27;;;;;;;9.77;5.83;;;;;;;;;;5035554;28;20219;-65
2022/04/13 10:51:54;;;;;;;10.30;5.43;;;;;;;;;;5035278;28;20175;-64
2022/04/13 10:54:22;;;;;;;8.40;4.93;;;;;;;;;;5035255;28;20249;-63
2022/04/13 10:56:56;;;;;;;10.20;4.73;;;;;;;;;;5017412;28;20211;-64
2022/04/13 10:59:32;;;;;;;9.13;4.73;;;;;;;;;;5035347;28;20179;-64
2022/04/13 11:02:07;;;;;;;7.40;4.53;;;;;;;;;;5035397;28;20623;-64
2022/04/13 11:04:33;;;;;;;14.93;5.13;;;;;;;;;;5017254;28;20214;-64
2022/04/13 11:07:00;;;;;;;8.40;4.43;;;;;;;;;;5035166;28;20552;-64
2022/04/13 11:09:28;;;;;;;4.67;3.40;;;;;;;;;;5034939;28;20179;-64
2022/04/13 11:11:55;;;;;;;7.83;4.60;;;;;;;;;;5035136;28;20182;-64
2022/04/13 11:14:22;;;;;;;11.60;5.30;;;;;;;;;;5035155;28;20205;-64
2022/04/13 11:16:52;;;;;;;11.07;5.80;;;;;;;;;;5034917;28;20285;-64
2022/04/13 11:19:19;;;;;;;8.00;5.10;;;;;;;;;;5017068;28;20225;-64
2022/04/13 11:21:54;;;;;;;8.67;5.50;;;;;;;;;;5035123;28;20183;-64
2022/04/13 11:24:38;;;;;;;8.23;4.77;;;;;;;;;;5034786;28;20191;-64
2022/04/13 11:27:05;;;;;;;10.57;4.87;;;;;;;;;;5034863;28;20215;-64
2022/04/13 11:29:35;;;;;;;8.10;4.97;;;;;;;;;;5034841;28;20183;-64
2022/04/13 11:32:01;;;;;;;8.53;4.57;;;;;;;;;;5034518;28;20176;-64
2022/04/13 11:34:30;;;;;;;9.17;4.90;;;;;;;;;;5034279;28;20203;-64
2022/04/13 11:37:00;;;;;;;13.77;5.13;;;;;;;;;;5034062;28;20229;-64
2022/04/13 11:40:03;;;;;;;7.53;5.40;;;;;;;;;;5016637;28;20188;-64
2022/04/13 11:42:32;;;;;;;9.83;4.43;;;;;;;;;;4993698;28;20219;-65
2022/04/13 11:45:03;;;;;;;13.23;4.97;;;;;;;;;;5034251;28;20197;-64
2022/04/13 11:47:40;;;;;;;11.00;7.17;;;;;;;;;;5034183;28;20648;-64
2022/04/13 11:50:12;;;;;;;10.07;5.90;;;;;;;;;;5016345;28;20167;-63
2022/04/13 11:52:48;;;;;;;9.33;5.60;;;;;;;;;;5034320;28;20183;-64
2022/04/13 11:55:22;;;;;;;9.93;5.80;;;;;;;;;;5016473;28;20186;-64
2022/04/13 11:58:13;;;;;;;6.53;5.33;;;;;;;;;;5033480;28;20639;-64
2022/04/13 12:00:59;;;;;;;10.40;5.33;;;;;;;;;;5024736;28;20249;-64
2022/04/13 12:03:26;;;;;;;10.90;6.73;;;;;;;;;;5033795;28;20249;-63
2022/04/13 12:05:53;;;;;;;8.17;6.07;;;;;;;;;;5033862;28;20320;-64
2022/04/13 12:08:21;;;;;;;13.53;8.00;;;;;;;;;;5033940;28;20287;-64
2022/04/13 12:11:00;;;;;;;10.37;6.43;;;;;;;;;;5034151;28;20183;-64
2022/04/13 12:13:27;;;;;;;9.47;5.93;;;;;;;;;;5033794;28;20265;-64
2022/04/13 12:15:54;;;;;;;9.43;6.23;;;;;;;;;;5033739;28;20199;-64
2022/04/13 12:18:21;;;;;;;11.27;8.20;;;;;;;;;;5033894;28;20167;-64
2022/04/13 12:20:49;;;;;;;13.27;7.07;;;;;;;;;;5033732;28;20639;-64
2022/04/13 12:23:20;;;;;;;9.67;5.97;;;;;;;;;;5033645;28;20271;-64
2022/04/13 12:25:46;;;;;;;10.63;6.33;;;;;;;;;;5033584;28;20647;-64
2022/04/13 12:28:13;;;;;;;6.97;4.70;;;;;;;;;;5033734;28;20179;-64
2022/04/13 12:30:39;;;;;;;22.27;16.40;;;;;;;;;;5033610;28;20241;-64
2022/04/13 12:33:21;;;;;;;6.97;5.70;;;;;;;;;;5033509;28;20306;-64
2022/04/13 12:36:00;;;;;;;7.27;5.60;;;;;;;;;;5033376;28;20721;-64
2022/04/13 12:38:26;;;;;;;7.63;5.77;;;;;;;;;;5033790;28;20217;-64
2022/04/13 12:41:06;;;;;;;7.47;5.40;;;;;;;;;;5015778;28;20183;-64
2022/04/13 12:43:33;;;;;;;10.27;6.97;;;;;;;;;;5033682;28;20195;-63
2022/04/13 12:45:59;;;;;;;10.40;7.23;;;;;;;;;;5033286;28;20179;-64
2022/04/13 12:48:28;;;;;;;8.73;6.60;;;;;;;;;;5033457;28;20241;-64
2022/04/13 12:50:58;;;;;;;11.37;6.90;;;;;;;;;;5033296;28;20183;-64
2022/04/13 12:53:24;;;;;;;10.87;6.50;;;;;;;;;;5033815;28;20195;-64
2022/04/13 12:55:51;;;;;;;8.37;7.00;;;;;;;;;;5033431;28;20203;-64
2022/04/13 12:58:17;;;;;;;14.40;7.90;;;;;;;;;;5015613;28;20175;-63
2022/04/13 13:00:49;;;;;;;11.90;7.67;;;;;;;;;;5015582;28;20175;-64
2022/04/13 13:03:16;;;;;;;9.43;7.53;;;;;;;;;;5033183;28;20211;-64
2022/04/13 13:05:42;;;;;;;11.00;7.43;;;;;;;;;;5033250;28;20179;-64
2022/04/13 13:08:08;;;;;;;10.43;7.37;;;;;;;;;;5034356;28;20276;-64
2022/04/13 13:10:34;;;;;;;10.67;7.33;;;;;;;;;;5037244;28;20305;-64
2022/04/13 13:13:10;;;;;;;11.53;7.67;;;;;;;;;;5019528;28;20210;-65
2022/04/13 13:15:36;;;;;;;13.10;9.97;;;;;;;;;;5037322;28;20285;-65
2022/04/13 13:18:06;;;;;;;11.67;9.67;;;;;;;;;;5019402;28;20654;-64
2022/04/13 13:20:33;;;;;;;13.27;9.27;;;;;;;;;;5019291;28;20179;-65
2022/04/13 13:22:59;;;;;;;15.13;10.20;;;;;;;;;;5019240;28;20662;-65
2022/04/13 13:25:25;;;;;;;14.43;10.50;;;;;;;;;;5036955;28;20203;-65
2022/04/13 13:27:56;;;;;;;14.13;10.70;;;;;;;;;;5019129;28;20623;-65
2022/04/13 13:30:22;;;;;;;12.57;10.33;;;;;;;;;;5036935;28;20544;-65
2022/04/13 13:32:49;;;;;;;12.77;11.37;;;;;;;;;;5018965;28;20197;-64
2022/04/13 13:35:16;;;;;;;12.23;9.93;;;;;;;;;;5018693;28;20652;-64
2022/04/13 13:37:47;;;;;;;16.00;10.27;;;;;;;;;;5018983;28;20263;-64
2022/04/13 13:40:32;;;;;;;13.30;9.73;;;;;;;;;;5018944;28;20262;-65
2022/04/13 13:42:58;;;;;;;13.53;10.53;;;;;;;;;;5036570;28;20214;-64
2022/04/13 13:45:27;;;;;;;13.50;10.17;;;;;;;;;;5036623;28;20183;-64
2022/04/13 13:47:53;;;;;;;16.37;10.33;;;;;;;;;;5036976;28;20175;-64
2022/04/13 13:50:19;;;;;;;13.23;9.63;;;;;;;;;;5038368;28;20534;-64
2022/04/13 13:52:45;;;;;;;14.30;11.03;;;;;;;;;;5037332;28;20643;-65
2022/04/13 13:55:11;;;;;;;11.80;10.60;;;;;;;;;;5040114;28;20180;-65
2022/04/13 13:57:37;;;;;;;11.90;10.50;;;;;;;;;;5022926;28;20244;-65
2022/04/13 14:00:08;;;;;;;14.17;10.50;;;;;;;;;;5037895;28;20175;-65
2022/04/13 14:02:34;;;;;;;11.83;10.63;;;;;;;;;;5018530;28;20226;-65
2022/04/13 14:05:00;;;;;;;17.10;11.60;;;;;;;;;;5036226;28;20596;-65
2022/04/13 14:07:26;;;;;;;16.00;11.17;;;;;;;;;;5018224;28;20186;-65
2022/04/13 14:09:52;;;;;;;17.10;10.73;;;;;;;;;;5035994;28;20309;-64
2022/04/13 14:12:20;;;;;;;13.17;10.27;;;;;;;;;;5036222;28;20199;-64
2022/04/13 14:14:46;;;;;;;13.17;10.63;;;;;;;;;;5036024;28;20282;-65
2022/04/13 14:17:12;;;;;;;12.00;9.73;;;;;;;;;;5035912;28;20242;-65
2022/04/13 14:19:38;;;;;;;11.63;10.30;;;;;;;;;;5035441;28;20180;-65
2022/04/13 14:22:04;;;;;;;16.00;11.00;;;;;;;;;;5035944;28;20206;-65
2022/04/13 14:24:30;;;;;;;11.27;9.90;;;;;;;;;;5035865;28;20282;-67
2022/04/13 14:26:56;;;;;;;11.93;10.30;;;;;;;;;;5018067;28;20646;-65
2022/04/13 14:29:22;;;;;;;12.07;10.33;;;;;;;;;;5017877;28;20278;-65
2022/04/13 14:31:48;;;;;;;13.47;10.07;;;;;;;;;;5035669;28;20179;-64
2022/04/13 14:34:14;;;;;;;9.90;8.50;;;;;;;;;;5035516;28;20202;-64
2022/04/13 14:36:41;;;;;;;9.87;8.93;;;;;;;;;;5035469;28;20208;-64